Time;durP1;ratioP1;P1;durP2;ratioP2;P2;SDS_P1;SDS_P2;PMS_P1;PMS_P2;Temp;Humidity;BMP_temperature;BMP_pressure;BME280_temperature;BME280_humidity;BME280_pressure;Samples;Min_cycle;Max_cycle;Signal;HPM_P1;HPM_P2
2022/05/29 00:01:27;;;;;;;5.97;1.40;;;;;;;;;;10354726;28;20039;-57
2022/05/29 00:06:29;;;;;;;2.92;1.30;;;;;;;;;;10363946;28;20037;-57
2022/05/29 00:11:30;;;;;;;5.13;1.20;;;;;;;;;;10344233;28;20026;-57
2022/05/29 00:16:31;;;;;;;3.95;1.27;;;;;;;;;;10335621;28;20041;-57
2022/05/29 00:21:35;;;;;;;2.85;1.00;;;;;;;;;;10340533;28;20567;-59
2022/05/29 00:26:36;;;;;;;3.13;1.20;;;;;;;;;;10336521;28;20022;-58
2022/05/29 00:31:36;;;;;;;3.80;1.27;;;;;;;;;;10358123;28;20049;-58
2022/05/29 00:36:40;;;;;;;3.35;1.10;;;;;;;;;;10353667;28;20597;-58
2022/05/29 00:41:42;;;;;;;2.13;1.20;;;;;;;;;;10385389;28;20046;-58
2022/05/29 00:46:54;;;;;;;3.88;1.30;;;;;;;;;;10360346;28;20037;-58
2022/05/29 00:52:07;;;;;;;2.60;0.98;;;;;;;;;;10373421;28;20433;-58
2022/05/29 00:57:12;;;;;;;2.08;1.10;;;;;;;;;;10343862;28;20022;-58
2022/05/29 01:02:13;;;;;;;2.22;1.13;;;;;;;;;;10386695;28;20068;-58
2022/05/29 01:07:16;;;;;;;3.35;1.00;;;;;;;;;;10374349;28;20053;-59
2022/05/29 01:12:32;;;;;;;1.33;0.90;;;;;;;;;;10355433;28;20026;-59
2022/05/29 01:18:11;;;;;;;3.17;1.08;;;;;;;;;;10363917;28;20397;-59
2022/05/29 01:23:48;;;;;;;2.70;0.90;;;;;;;;;;10366768;28;20030;-58
2022/05/29 01:29:04;;;;;;;3.00;0.95;;;;;;;;;;10353291;28;20393;-58
2022/05/29 01:34:05;;;;;;;6.20;1.20;;;;;;;;;;10356561;28;20065;-59
2022/05/29 01:39:59;;;;;;;2.10;1.10;;;;;;;;;;10363505;28;20511;-59
2022/05/29 01:45:53;;;;;;;2.63;1.05;;;;;;;;;;10365314;28;20466;-58
2022/05/29 01:50:59;;;;;;;1.42;0.70;;;;;;;;;;10357010;28;20068;-58
2022/05/29 01:56:06;;;;;;;1.75;0.95;;;;;;;;;;10351795;28;20030;-57
2022/05/29 02:01:09;;;;;;;0.70;0.60;;;;;;;;;;10345305;28;20383;-58
2022/05/29 02:06:17;;;;;;;3.13;1.10;;;;;;;;;;10354888;28;20026;-59
2022/05/29 02:11:27;;;;;;;1.40;0.85;;;;;;;;;;10367500;28;20041;-58
2022/05/29 02:16:48;;;;;;;2.65;0.90;;;;;;;;;;10350010;28;20053;-58
2022/05/29 02:22:01;;;;;;;1.35;0.98;;;;;;;;;;10363626;28;20486;-58
2022/05/29 02:27:32;;;;;;;2.28;1.05;;;;;;;;;;10356198;28;20050;-57
2022/05/29 02:32:56;;;;;;;1.88;1.00;;;;;;;;;;10363205;28;20704;-58
2022/05/29 02:38:10;;;;;;;1.05;0.80;;;;;;;;;;10351580;28;20052;-57
2022/05/29 02:43:23;;;;;;;0.98;0.80;;;;;;;;;;10359921;28;20101;-59
2022/05/29 02:48:56;;;;;;;1.67;0.82;;;;;;;;;;10369255;28;20402;-59
2022/05/29 02:53:57;;;;;;;1.25;0.90;;;;;;;;;;10356361;28;20125;-59
2022/05/29 02:58:59;;;;;;;1.27;0.88;;;;;;;;;;10355165;28;20053;-59
2022/05/29 03:04:37;;;;;;;1.17;0.80;;;;;;;;;;10357613;28;20037;-59
2022/05/29 03:09:54;;;;;;;;;;;;;;;;;;10351822;28;20034;-59
2022/05/29 03:15:29;;;;;;;2.80;0.73;;;;;;;;;;10340601;28;19944;-59
2022/05/29 03:21:03;;;;;;;1.27;0.80;;;;;;;;;;10368370;28;20113;-58
2022/05/29 03:26:17;;;;;;;2.53;0.85;;;;;;;;;;10336491;28;20444;-59
2022/05/29 03:31:25;;;;;;;1.38;0.70;;;;;;;;;;10337889;28;20160;-59
2022/05/29 03:36:28;;;;;;;;;;;;;;;;;;10352615;28;20048;-58
2022/05/29 03:41:39;;;;;;;3.35;0.80;;;;;;;;;;10358863;28;19928;-59
2022/05/29 03:46:40;;;;;;;1.45;1.00;;;;;;;;;;10365464;28;20029;-57
2022/05/29 03:51:42;;;;;;;2.60;1.00;;;;;;;;;;10366210;28;20484;-57
2022/05/29 03:56:43;;;;;;;4.07;0.80;;;;;;;;;;10368367;28;20033;-58
2022/05/29 04:01:44;;;;;;;1.15;0.70;;;;;;;;;;10358520;28;20030;-57
2022/05/29 04:06:44;;;;;;;1.17;0.85;;;;;;;;;;10360994;28;20613;-57
2022/05/29 04:12:04;;;;;;;1.00;0.95;;;;;;;;;;10359348;28;20030;-57
2022/05/29 04:17:05;;;;;;;2.13;1.00;;;;;;;;;;10335212;28;20597;-58
2022/05/29 04:22:14;;;;;;;1.85;0.75;;;;;;;;;;10339779;28;20402;-58
2022/05/29 04:27:16;;;;;;;0.75;0.68;;;;;;;;;;10348686;28;20042;-57
2022/05/29 04:37:36;;;;;;;0.88;0.85;;;;;;;;;;10353156;28;20042;-57
2022/05/29 04:42:36;;;;;;;1.42;0.73;;;;;;;;;;10365508;28;20105;-57
2022/05/29 04:47:37;;;;;;;2.10;0.77;;;;;;;;;;10349132;28;20566;-57
2022/05/29 04:52:38;;;;;;;1.08;0.70;;;;;;;;;;10352658;28;20041;-57
2022/05/29 04:57:38;;;;;;;0.70;0.60;;;;;;;;;;10353263;28;20056;-58
2022/05/29 05:02:40;;;;;;;1.10;0.60;;;;;;;;;;10365652;28;20478;-58
2022/05/29 05:07:40;;;;;;;0.65;0.65;;;;;;;;;;10366785;28;20037;-58
2022/05/29 05:12:42;;;;;;;1.33;0.70;;;;;;;;;;10360112;28;20028;-57
2022/05/29 05:17:43;;;;;;;0.88;0.75;;;;;;;;;;10362834;28;20026;-58
2022/05/29 05:22:44;;;;;;;0.80;0.70;;;;;;;;;;10366888;28;20470;-58
2022/05/29 05:27:44;;;;;;;14.23;1.00;;;;;;;;;;10368304;28;20026;-58
2022/05/29 05:32:45;;;;;;;0.70;0.70;;;;;;;;;;10369117;28;20042;-57
2022/05/29 05:37:45;;;;;;;3.60;0.82;;;;;;;;;;10372009;28;20034;-57
2022/05/29 05:42:46;;;;;;;1.05;0.90;;;;;;;;;;10374023;28;20025;-58
2022/05/29 05:47:47;;;;;;;1.25;0.90;;;;;;;;;;10352819;28;20018;-58
2022/05/29 05:52:47;;;;;;;1.52;0.93;;;;;;;;;;10377503;28;20034;-57
2022/05/29 05:57:48;;;;;;;1.10;0.70;;;;;;;;;;10357897;28;20018;-58
2022/05/29 06:02:48;;;;;;;0.85;0.80;;;;;;;;;;10370264;28;20033;-57
2022/05/29 06:07:50;;;;;;;0.70;0.70;;;;;;;;;;10347538;28;20113;-58
2022/05/29 06:12:50;;;;;;;2.47;1.00;;;;;;;;;;10382602;28;20033;-57
2022/05/29 06:17:51;;;;;;;2.47;0.80;;;;;;;;;;10371415;28;20029;-58
2022/05/29 06:22:52;;;;;;;1.27;0.85;;;;;;;;;;10370562;28;20689;-58
2022/05/29 06:27:52;;;;;;;2.22;1.10;;;;;;;;;;10357711;28;20441;-57
2022/05/29 06:32:53;;;;;;;1.50;0.90;;;;;;;;;;10365462;28;20041;-59
2022/05/29 06:37:53;;;;;;;3.65;0.90;;;;;;;;;;10358406;28;20081;-59
2022/05/29 06:42:54;;;;;;;3.15;0.75;;;;;;;;;;10367731;28;20023;-58
2022/05/29 06:47:55;;;;;;;1.05;0.68;;;;;;;;;;10362941;28;20034;-59
2022/05/29 06:52:56;;;;;;;1.52;0.90;;;;;;;;;;10366498;28;20233;-59
2022/05/29 06:57:57;;;;;;;2.55;0.95;;;;;;;;;;10350500;28;20033;-59
2022/05/29 07:08:20;;;;;;;2.15;1.08;;;;;;;;;;10341531;28;20066;-59
2022/05/29 07:13:22;;;;;;;1.48;0.80;;;;;;;;;;10377228;28;20058;-59
2022/05/29 07:18:23;;;;;;;2.97;0.77;;;;;;;;;;10368837;28;20069;-59
2022/05/29 07:23:23;;;;;;;3.38;0.80;;;;;;;;;;10369789;28;20026;-58
2022/05/29 07:28:25;;;;;;;2.53;0.98;;;;;;;;;;10354549;28;20030;-58
2022/05/29 07:33:25;;;;;;;5.80;1.20;;;;;;;;;;10370378;28;20547;-59
2022/05/29 07:38:29;;;;;;;4.47;1.25;;;;;;;;;;10340505;28;20050;-58
2022/05/29 07:43:30;;;;;;;4.60;1.10;;;;;;;;;;10367221;28;20022;-58
2022/05/29 07:48:30;;;;;;;2.90;1.10;;;;;;;;;;10340568;28;20034;-58
2022/05/29 07:53:31;;;;;;;3.25;1.27;;;;;;;;;;10365436;28;20026;-58
2022/05/29 07:58:33;;;;;;;6.82;1.10;;;;;;;;;;10354793;28;20065;-58
2022/05/29 08:03:33;;;;;;;4.38;0.93;;;;;;;;;;10349898;28;20034;-58
2022/05/29 08:08:35;;;;;;;1.33;0.95;;;;;;;;;;10375713;28;20026;-58
2022/05/29 08:13:36;;;;;;;8.75;1.83;;;;;;;;;;10366856;28;20022;-58
2022/05/29 08:18:38;;;;;;;3.90;1.35;;;;;;;;;;10366766;28;20387;-59
2022/05/29 08:23:40;;;;;;;2.00;0.93;;;;;;;;;;10339628;28;20053;-58
2022/05/29 08:34:00;;;;;;;7.43;1.17;;;;;;;;;;10354274;28;20035;-57
2022/05/29 08:39:01;;;;;;;3.53;1.27;;;;;;;;;;10356783;28;20038;-57
2022/05/29 08:44:12;;;;;;;2.00;1.13;;;;;;;;;;10363540;28;20026;-57
2022/05/29 08:49:21;;;;;;;8.48;1.48;;;;;;;;;;10345868;28;20046;-57
2022/05/29 08:55:15;;;;;;;1.88;1.05;;;;;;;;;;10347452;28;20430;-57
2022/05/29 09:00:22;;;;;;;2.67;1.20;;;;;;;;;;10329879;28;20565;-58
2022/05/29 09:05:46;;;;;;;1.70;1.05;;;;;;;;;;10386417;28;20104;-58
2022/05/29 09:10:55;;;;;;;1.88;1.17;;;;;;;;;;10363582;28;20029;-58
2022/05/29 09:16:14;;;;;;;1.58;1.00;;;;;;;;;;10346548;28;20034;-58
2022/05/29 09:21:25;;;;;;;1.70;1.00;;;;;;;;;;10345682;28;20048;-59
2022/05/29 09:26:34;;;;;;;1.80;0.93;;;;;;;;;;10355939;28;20037;-59
2022/05/29 09:31:38;;;;;;;1.75;1.17;;;;;;;;;;10331725;28;20030;-59
2022/05/29 09:36:54;;;;;;;1.55;1.10;;;;;;;;;;10342076;28;20115;-58
2022/05/29 09:42:12;;;;;;;4.05;1.35;;;;;;;;;;10359469;28;20041;-58
2022/05/29 09:52:49;;;;;;;1.50;1.23;;;;;;;;;;10360000;28;20030;-59
2022/05/29 09:58:00;;;;;;;2.80;1.10;;;;;;;;;;10371379;28;20466;-59
2022/05/29 10:03:04;;;;;;;1.02;0.93;;;;;;;;;;10349684;28;20022;-59
2022/05/29 10:08:31;;;;;;;2.88;1.30;;;;;;;;;;10381390;28;20030;-59
2022/05/29 10:13:39;;;;;;;2.58;1.05;;;;;;;;;;10360114;28;20504;-59
2022/05/29 10:18:43;;;;;;;2.20;1.10;;;;;;;;;;10357113;28;20487;-59
2022/05/29 10:24:11;;;;;;;1.90;1.20;;;;;;;;;;10346738;28;20534;-59
2022/05/29 10:29:25;;;;;;;2.60;1.00;;;;;;;;;;10337335;28;20496;-59
2022/05/29 10:34:30;;;;;;;4.60;1.20;;;;;;;;;;10381083;28;20379;-59
2022/05/29 10:39:31;;;;;;;2.15;1.20;;;;;;;;;;10368894;28;20103;-59
2022/05/29 10:44:46;;;;;;;2.28;1.25;;;;;;;;;;10366376;28;20079;-59
2022/05/29 10:50:10;;;;;;;1.38;1.10;;;;;;;;;;10374024;28;20493;-59
2022/05/29 10:55:36;;;;;;;2.30;1.30;;;;;;;;;;10333287;28;20033;-58
2022/05/29 11:01:01;;;;;;;2.45;1.20;;;;;;;;;;10356213;28;20033;-58
2022/05/29 11:06:23;;;;;;;2.50;1.30;;;;;;;;;;10356851;28;20037;-59
2022/05/29 11:11:55;;;;;;;8.75;1.42;;;;;;;;;;10372563;28;20030;-58
2022/05/29 11:17:23;;;;;;;5.35;1.40;;;;;;;;;;10359875;28;20036;-59
2022/05/29 11:22:44;;;;;;;6.18;1.58;;;;;;;;;;10365150;28;20034;-58
2022/05/29 11:28:29;;;;;;;4.97;1.27;;;;;;;;;;10346409;28;20418;-58
2022/05/29 11:34:10;;;;;;;3.10;1.45;;;;;;;;;;10344704;28;20052;-58
2022/05/29 11:39:20;;;;;;;2.67;1.25;;;;;;;;;;10368189;28;20048;-57
2022/05/29 11:44:26;;;;;;;2.30;1.20;;;;;;;;;;10366121;28;20040;-58
2022/05/29 11:55:28;;;;;;;1.92;1.20;;;;;;;;;;10353705;28;20033;-58
2022/05/29 12:00:53;;;;;;;3.53;1.30;;;;;;;;;;10336598;28;20109;-59
2022/05/29 12:06:18;;;;;;;3.60;1.33;;;;;;;;;;10349574;28;20041;-58
2022/05/29 12:12:04;;;;;;;3.20;1.73;;;;;;;;;;10354317;28;20291;-57
2022/05/29 12:17:10;;;;;;;4.93;1.20;;;;;;;;;;10326885;28;20049;-58
2022/05/29 12:22:15;;;;;;;1.35;1.25;;;;;;;;;;10344180;28;20022;-58
2022/05/29 12:27:20;;;;;;;2.08;1.30;;;;;;;;;;10325349;28;20058;-58
2022/05/29 12:32:28;;;;;;;2.55;1.23;;;;;;;;;;10337605;28;20046;-59
2022/05/29 12:37:29;;;;;;;;;;;;;;;;;;10334869;28;20403;-59
2022/05/29 12:42:44;;;;;;;2.20;1.00;;;;;;;;;;10347406;28;19933;-59
2022/05/29 12:48:53;;;;;;;1.33;1.10;;;;;;;;;;10362335;28;20038;-58
2022/05/29 12:54:18;;;;;;;1.42;1.05;;;;;;;;;;10315881;28;20494;-58
2022/05/29 13:00:04;;;;;;;1.48;1.15;;;;;;;;;;10373059;28;20803;-58
2022/05/29 13:05:25;;;;;;;2.25;1.10;;;;;;;;;;10357621;28;20393;-58
2022/05/29 13:10:33;;;;;;;1.77;1.10;;;;;;;;;;10372402;28;20079;-58
2022/05/29 13:15:37;;;;;;;3.60;1.25;;;;;;;;;;10369585;28;20391;-59
2022/05/29 13:21:08;;;;;;;3.17;1.15;;;;;;;;;;10378687;28;20040;-58
2022/05/29 13:26:08;;;;;;;1.70;1.25;;;;;;;;;;10379786;28;20390;-58
2022/05/29 13:31:12;;;;;;;2.00;1.27;;;;;;;;;;10358148;28;20028;-58
2022/05/29 13:36:44;;;;;;;4.40;1.25;;;;;;;;;;10343775;28;21046;-59
2022/05/29 13:42:02;;;;;;;1.58;1.10;;;;;;;;;;10367920;28;20117;-58
2022/05/29 13:47:24;;;;;;;4.47;1.40;;;;;;;;;;10352167;28;20038;-58
2022/05/29 13:52:39;;;;;;;2.05;1.05;;;;;;;;;;10371228;28;20036;-58
2022/05/29 14:08:30;;;;;;;6.95;1.50;;;;;;;;;;10377264;28;20034;-58
2022/05/29 14:13:49;;;;;;;3.20;1.25;;;;;;;;;;10369015;28;20040;-58
2022/05/29 14:19:19;;;;;;;7.88;1.42;;;;;;;;;;10369133;28;20026;-58
2022/05/29 14:24:59;;;;;;;6.30;1.50;;;;;;;;;;10362656;28;20038;-58
2022/05/29 14:30:21;;;;;;;5.97;1.30;;;;;;;;;;10322904;28;20037;-58
2022/05/29 14:35:58;;;;;;;9.52;1.30;;;;;;;;;;10386402;28;20053;-59
2022/05/29 14:41:09;;;;;;;5.68;1.45;;;;;;;;;;10384339;28;20390;-58
2022/05/29 14:46:26;;;;;;;3.65;1.17;;;;;;;;;;10359080;28;20038;-58
2022/05/29 14:51:46;;;;;;;4.60;1.30;;;;;;;;;;10349631;28;20051;-58
2022/05/29 14:56:58;;;;;;;7.53;1.38;;;;;;;;;;10342589;28;20464;-58
2022/05/29 15:02:22;;;;;;;7.20;1.40;;;;;;;;;;10367235;28;20491;-58
2022/05/29 15:12:45;;;;;;;2.35;1.27;;;;;;;;;;10363267;28;20038;-64
2022/05/29 15:17:48;;;;;;;3.25;1.38;;;;;;;;;;10383206;23;20058;-48
2022/05/29 15:28:24;;;;;;;1.77;1.05;;;;;;;;;;10345823;28;20117;-59
2022/05/29 15:33:43;;;;;;;3.47;1.15;;;;;;;;;;10306462;27;7988169;-61
2022/05/29 15:38:52;;;;;;;4.50;1.00;;;;;;;;;;10514827;28;20029;-61
2022/05/29 15:44:08;;;;;;;0.93;0.85;;;;;;;;;;10509741;28;20031;-61
2022/05/29 15:49:39;;;;;;;2.72;1.20;;;;;;;;;;10493560;28;20035;-58
2022/05/29 15:55:23;;;;;;;1.77;0.90;;;;;;;;;;10513908;28;20020;-46
2022/05/29 16:00:26;;;;;;;1.75;0.93;;;;;;;;;;10521228;28;20479;-45
2022/05/29 16:05:38;;;;;;;7.53;1.20;;;;;;;;;;10502599;28;20044;-45
2022/05/29 16:10:39;;;;;;;4.72;1.00;;;;;;;;;;10524172;28;20032;-51
2022/05/29 16:15:41;;;;;;;2.13;1.20;;;;;;;;;;10501644;28;20143;-45
2022/05/29 16:21:03;;;;;;;1.30;0.90;;;;;;;;;;10519884;28;20028;-45
2022/05/29 16:26:14;;;;;;;5.20;1.13;;;;;;;;;;10498324;28;20020;-45
2022/05/29 16:31:24;;;;;;;5.00;1.08;;;;;;;;;;10500945;28;20411;-45
2022/05/29 16:36:30;;;;;;;3.03;1.00;;;;;;;;;;10517459;28;20021;-47
2022/05/29 16:53:14;;;;;;;9.52;1.25;;;;;;;;;;10481366;28;20036;-52
2022/05/29 16:58:25;;;;;;;1.88;1.10;;;;;;;;;;10477098;28;20366;-49
2022/05/29 17:03:54;;;;;;;2.70;0.70;;;;;;;;;;10468444;28;20499;-53
2022/05/29 17:09:20;;;;;;;3.38;1.00;;;;;;;;;;10474739;28;20447;-47
2022/05/29 17:14:21;;;;;;;1.65;0.93;;;;;;;;;;10461354;28;20392;-62
2022/05/29 17:19:22;;;;;;;3.80;0.90;;;;;;;;;;10486255;28;20029;-60
2022/05/29 17:24:38;;;;;;;5.45;1.00;;;;;;;;;;10484405;28;20028;-63
2022/05/29 17:29:54;;;;;;;21.20;1.92;;;;;;;;;;10482298;28;20045;-56
2022/05/29 17:35:06;;;;;;;6.10;1.60;;;;;;;;;;10486645;28;20029;-48
2022/05/29 17:40:12;;;;;;;3.75;1.17;;;;;;;;;;10487477;28;20677;-45
2022/05/29 17:45:14;;;;;;;3.17;1.00;;;;;;;;;;10461194;28;20027;-45
2022/05/29 17:50:45;;;;;;;4.43;1.08;;;;;;;;;;10489086;28;20040;-45
2022/05/29 17:55:45;;;;;;;3.03;1.13;;;;;;;;;;10482741;28;20145;-47
2022/05/29 18:00:46;;;;;;;1.95;1.20;;;;;;;;;;10485631;28;20032;-45
2022/05/29 18:05:50;;;;;;;4.25;1.05;;;;;;;;;;10490793;28;20036;-45
2022/05/29 18:10:52;;;;;;;3.95;1.52;;;;;;;;;;10472023;28;20036;-45
2022/05/29 18:15:53;;;;;;;7.00;1.20;;;;;;;;;;10463759;28;20510;-45
2022/05/29 18:20:54;;;;;;;4.15;1.13;;;;;;;;;;10489225;28;20039;-44
2022/05/29 18:25:59;;;;;;;2.17;1.20;;;;;;;;;;10488934;28;20091;-46
2022/05/29 18:30:59;;;;;;;7.45;1.60;;;;;;;;;;10478866;28;20044;-44
2022/05/29 18:36:00;;;;;;;7.32;1.52;;;;;;;;;;10490514;28;20483;-45
2022/05/29 18:41:04;;;;;;;6.13;1.50;;;;;;;;;;10476317;28;20484;-44
2022/05/29 18:46:09;;;;;;;6.55;1.20;;;;;;;;;;10487377;28;20029;-45
2022/05/29 18:51:16;;;;;;;6.82;1.23;;;;;;;;;;10474773;28;20029;-45
2022/05/29 18:56:17;;;;;;;8.03;1.37;;;;;;;;;;10491291;28;20078;-46
2022/05/29 19:01:20;;;;;;;3.70;1.38;;;;;;;;;;10469749;28;20070;-45
2022/05/29 19:06:22;;;;;;;6.75;1.60;;;;;;;;;;10490530;28;20104;-45
2022/05/29 19:11:23;;;;;;;3.05;1.20;;;;;;;;;;10483305;28;20058;-45
2022/05/29 19:16:28;;;;;;;4.63;0.95;;;;;;;;;;10490431;28;20020;-45
2022/05/29 19:21:29;;;;;;;2.20;1.02;;;;;;;;;;10480069;28;20036;-45
2022/05/29 19:26:33;;;;;;;4.38;1.02;;;;;;;;;;10489812;28;20039;-46
2022/05/29 19:31:38;;;;;;;3.85;1.10;;;;;;;;;;10476939;28;20040;-45
2022/05/29 19:36:43;;;;;;;2.67;1.20;;;;;;;;;;10485326;28;20067;-52
2022/05/29 19:41:43;;;;;;;3.85;1.10;;;;;;;;;;10489279;28;20020;-45
2022/05/29 19:46:44;;;;;;;3.75;1.10;;;;;;;;;;10489560;28;20020;-45
2022/05/29 19:51:45;;;;;;;2.22;1.20;;;;;;;;;;10475211;28;20017;-45
2022/05/29 19:56:45;;;;;;;3.45;1.20;;;;;;;;;;10483948;28;20479;-45
2022/05/29 20:01:46;;;;;;;1.23;1.10;;;;;;;;;;10468099;28;20028;-45
2022/05/29 20:06:46;;;;;;;1.92;0.98;;;;;;;;;;10485539;28;20515;-47
2022/05/29 20:11:47;;;;;;;1.55;0.80;;;;;;;;;;10481635;28;20036;-45
2022/05/29 20:16:50;;;;;;;3.83;1.00;;;;;;;;;;10485420;28;20048;-45
2022/05/29 20:21:51;;;;;;;2.05;1.30;;;;;;;;;;10487309;28;20025;-44
2022/05/29 20:26:52;;;;;;;1.02;0.85;;;;;;;;;;10490102;28;20379;-44
2022/05/29 20:31:52;;;;;;;1.85;1.00;;;;;;;;;;10494479;28;20049;-45
2022/05/29 20:36:54;;;;;;;2.28;1.00;;;;;;;;;;10485030;28;20358;-45
2022/05/29 20:41:55;;;;;;;1.65;0.98;;;;;;;;;;10474226;28;20041;-45
2022/05/29 20:52:19;;;;;;;1.35;0.80;;;;;;;;;;10481964;28;20112;-45
2022/05/29 20:57:20;;;;;;;2.83;1.02;;;;;;;;;;10495433;28;20033;-45
2022/05/29 21:02:21;;;;;;;4.03;1.10;;;;;;;;;;10477377;28;20029;-45
2022/05/29 21:07:21;;;;;;;5.30;1.10;;;;;;;;;;10485690;28;20471;-45
2022/05/29 21:12:22;;;;;;;3.13;1.08;;;;;;;;;;10479287;28;20033;-45
2022/05/29 21:17:23;;;;;;;1.75;0.93;;;;;;;;;;10492451;28;20028;-45
2022/05/29 21:22:23;;;;;;;1.98;1.10;;;;;;;;;;10493226;28;20074;-45
2022/05/29 21:27:24;;;;;;;3.60;1.10;;;;;;;;;;10494155;28;20029;-47
2022/05/29 21:32:25;;;;;;;3.22;1.05;;;;;;;;;;10484394;28;20044;-49
2022/05/29 21:42:44;;;;;;;2.83;1.05;;;;;;;;;;10485428;28;20032;-44
2022/05/29 21:47:45;;;;;;;1.13;0.73;;;;;;;;;;10489957;28;20383;-46
2022/05/29 21:52:46;;;;;;;1.70;0.93;;;;;;;;;;10490273;28;20032;-44
2022/05/29 21:57:47;;;;;;;2.22;1.23;;;;;;;;;;10489715;28;20029;-44
2022/05/29 22:02:47;;;;;;;3.15;0.90;;;;;;;;;;10483897;28;20561;-44
2022/05/29 22:07:48;;;;;;;20.80;1.10;;;;;;;;;;10483654;28;20090;-44
2022/05/29 22:12:48;;;;;;;3.90;1.00;;;;;;;;;;10483471;28;20040;-45
2022/05/29 22:17:49;;;;;;;2.47;0.98;;;;;;;;;;10482275;28;20031;-45
2022/05/29 22:22:50;;;;;;;1.02;0.80;;;;;;;;;;10484097;28;20037;-43
2022/05/29 22:27:51;;;;;;;3.20;0.98;;;;;;;;;;10489860;28;20035;-44
2022/05/29 22:33:16;;;;;;;6.45;1.10;;;;;;;;;;10485644;28;20365;-44
2022/05/29 22:38:16;;;;;;;1.55;1.00;;;;;;;;;;10485294;28;20036;-44
2022/05/29 22:43:17;;;;;;;3.67;0.90;;;;;;;;;;10477902;28;20032;-47
2022/05/29 22:48:28;;;;;;;2.10;0.90;;;;;;;;;;10491171;28;20020;-45
2022/05/29 22:53:44;;;;;;;2.97;0.85;;;;;;;;;;10483972;28;20040;-44
2022/05/29 22:58:46;;;;;;;5.35;1.02;;;;;;;;;;10491050;28;20376;-44
2022/05/29 23:04:07;;;;;;;1.10;0.82;;;;;;;;;;10488874;28;20062;-44
2022/05/29 23:09:07;;;;;;;1.73;1.20;;;;;;;;;;10461663;28;20475;-44
2022/05/29 23:14:08;;;;;;;1.02;0.80;;;;;;;;;;10471382;28;20024;-44
2022/05/29 23:19:09;;;;;;;2.53;1.13;;;;;;;;;;10488896;28;20033;-44
2022/05/29 23:24:18;;;;;;;1.45;0.70;;;;;;;;;;10476064;28;20439;-50
2022/05/29 23:30:05;;;;;;;2.40;0.90;;;;;;;;;;10488287;28;20056;-52
2022/05/29 23:34:39;;;;;;;1.75;1.02;;;;;;;;;;10475611;28;20028;-46
2022/05/29 23:39:39;;;;;;;1.00;0.90;;;;;;;;;;10490605;28;20032;-49
2022/05/29 23:44:42;;;;;;;3.75;1.35;;;;;;;;;;10479631;28;20362;-51
2022/05/29 23:49:44;;;;;;;1.80;0.98;;;;;;;;;;10466065;28;20372;-46
2022/05/29 23:54:47;;;;;;;5.13;1.00;;;;;;;;;;10479014;28;20495;-45
2022/05/29 23:59:47;;;;;;;1.67;0.90;;;;;;;;;;10494105;28;20089;-55
